sensor_id;sensor_type;location;lat;lon;timestamp;P1;durP1;ratioP1;P2;durP2;ratioP2
80247;SDS011;69560;52.206;21.018;2024-02-21T00:01:16;13.40;;;5.30;;
80247;SDS011;69560;52.206;21.018;2024-02-21T00:03:43;9.90;;;4.90;;
80247;SDS011;69560;52.206;21.018;2024-02-21T00:06:10;13.10;;;5.50;;
80247;SDS011;69560;52.206;21.018;2024-02-21T00:08:37;11.60;;;5.10;;
80247;SDS011;69560;52.206;21.018;2024-02-21T00:11:03;11.40;;;5.40;;
80247;SDS011;69560;52.206;21.018;2024-02-21T00:13:30;13.20;;;5.70;;
80247;SDS011;69560;52.206;21.018;2024-02-21T00:15:56;11.90;;;4.90;;
80247;SDS011;69560;52.206;21.018;2024-02-21T00:18:23;13.10;;;5.20;;
80247;SDS011;69560;52.206;21.018;2024-02-21T00:20:49;13.40;;;6.10;;
80247;SDS011;69560;52.206;21.018;2024-02-21T00:23:16;13.90;;;6.00;;
80247;SDS011;69560;52.206;21.018;2024-02-21T00:25:42;13.90;;;6.20;;
80247;SDS011;69560;52.206;21.018;2024-02-21T00:28:09;12.00;;;5.30;;
80247;SDS011;69560;52.206;21.018;2024-02-21T00:30:35;14.70;;;5.60;;
80247;SDS011;69560;52.206;21.018;2024-02-21T00:33:04;14.20;;;5.40;;
80247;SDS011;69560;52.206;21.018;2024-02-21T00:35:31;15.40;;;5.80;;
80247;SDS011;69560;52.206;21.018;2024-02-21T00:37:57;18.80;;;6.30;;
80247;SDS011;69560;52.206;21.018;2024-02-21T00:40:25;13.60;;;5.70;;
80247;SDS011;69560;52.206;21.018;2024-02-21T00:42:52;13.30;;;6.20;;
80247;SDS011;69560;52.206;21.018;2024-02-21T00:45:18;16.30;;;6.30;;
80247;SDS011;69560;52.206;21.018;2024-02-21T00:47:45;12.30;;;5.80;;
80247;SDS011;69560;52.206;21.018;2024-02-21T00:50:12;16.00;;;6.00;;
80247;SDS011;69560;52.206;21.018;2024-02-21T00:52:38;13.70;;;6.30;;
80247;SDS011;69560;52.206;21.018;2024-02-21T00:55:05;17.40;;;7.10;;
80247;SDS011;69560;52.206;21.018;2024-02-21T00:57:32;12.20;;;5.80;;
80247;SDS011;69560;52.206;21.018;2024-02-21T00:59:59;13.50;;;6.50;;
80247;SDS011;69560;52.206;21.018;2024-02-21T01:02:26;19.00;;;7.00;;
80247;SDS011;69560;52.206;21.018;2024-02-21T01:04:52;15.10;;;6.90;;
80247;SDS011;69560;52.206;21.018;2024-02-21T01:07:19;15.70;;;7.20;;
80247;SDS011;69560;52.206;21.018;2024-02-21T01:09:45;18.60;;;7.50;;
80247;SDS011;69560;52.206;21.018;2024-02-21T01:12:12;16.40;;;6.60;;
80247;SDS011;69560;52.206;21.018;2024-02-21T01:14:38;16.50;;;6.80;;
80247;SDS011;69560;52.206;21.018;2024-02-21T01:17:05;18.10;;;7.10;;
80247;SDS011;69560;52.206;21.018;2024-02-21T01:19:32;15.80;;;7.60;;
80247;SDS011;69560;52.206;21.018;2024-02-21T01:21:59;16.30;;;6.40;;
80247;SDS011;69560;52.206;21.018;2024-02-21T01:24:25;15.30;;;7.40;;
80247;SDS011;69560;52.206;21.018;2024-02-21T01:26:51;16.50;;;6.90;;
80247;SDS011;69560;52.206;21.018;2024-02-21T01:29:18;14.20;;;6.50;;
80247;SDS011;69560;52.206;21.018;2024-02-21T01:31:44;15.20;;;7.30;;
80247;SDS011;69560;52.206;21.018;2024-02-21T01:34:11;18.00;;;6.70;;
80247;SDS011;69560;52.206;21.018;2024-02-21T01:36:38;9.70;;;5.50;;
80247;SDS011;69560;52.206;21.018;2024-02-21T01:39:05;15.00;;;5.90;;
80247;SDS011;69560;52.206;21.018;2024-02-21T01:41:31;14.60;;;7.00;;
80247;SDS011;69560;52.206;21.018;2024-02-21T01:43:58;14.80;;;7.10;;
80247;SDS011;69560;52.206;21.018;2024-02-21T01:46:25;17.20;;;7.00;;
80247;SDS011;69560;52.206;21.018;2024-02-21T01:48:56;13.50;;;7.00;;
80247;SDS011;69560;52.206;21.018;2024-02-21T01:51:24;15.70;;;6.90;;
80247;SDS011;69560;52.206;21.018;2024-02-21T01:53:51;15.40;;;6.70;;
80247;SDS011;69560;52.206;21.018;2024-02-21T01:56:19;16.40;;;6.90;;
80247;SDS011;69560;52.206;21.018;2024-02-21T01:58:46;13.40;;;6.70;;
80247;SDS011;69560;52.206;21.018;2024-02-21T02:01:14;17.10;;;8.10;;
80247;SDS011;69560;52.206;21.018;2024-02-21T02:03:42;15.20;;;7.10;;
80247;SDS011;69560;52.206;21.018;2024-02-21T02:06:08;14.60;;;7.70;;
80247;SDS011;69560;52.206;21.018;2024-02-21T02:08:35;12.90;;;7.10;;
80247;SDS011;69560;52.206;21.018;2024-02-21T02:11:01;15.40;;;7.00;;
80247;SDS011;69560;52.206;21.018;2024-02-21T02:13:28;16.90;;;8.20;;
80247;SDS011;69560;52.206;21.018;2024-02-21T02:15:55;18.10;;;7.70;;
80247;SDS011;69560;52.206;21.018;2024-02-21T02:18:21;15.50;;;8.10;;
80247;SDS011;69560;52.206;21.018;2024-02-21T02:20:48;15.90;;;8.60;;
80247;SDS011;69560;52.206;21.018;2024-02-21T02:23:25;15.20;;;8.70;;
80247;SDS011;69560;52.206;21.018;2024-02-21T02:25:56;14.50;;;8.00;;
80247;SDS011;69560;52.206;21.018;2024-02-21T02:28:22;14.90;;;7.70;;
80247;SDS011;69560;52.206;21.018;2024-02-21T02:30:49;11.80;;;7.00;;
80247;SDS011;69560;52.206;21.018;2024-02-21T02:33:16;15.20;;;7.90;;
80247;SDS011;69560;52.206;21.018;2024-02-21T02:35:46;17.00;;;8.70;;
80247;SDS011;69560;52.206;21.018;2024-02-21T02:38:13;17.20;;;7.90;;
80247;SDS011;69560;52.206;21.018;2024-02-21T02:40:40;14.80;;;8.20;;
80247;SDS011;69560;52.206;21.018;2024-02-21T02:43:07;14.20;;;7.50;;
80247;SDS011;69560;52.206;21.018;2024-02-21T02:45:34;15.30;;;7.40;;
80247;SDS011;69560;52.206;21.018;2024-02-21T02:48:01;13.10;;;7.50;;
80247;SDS011;69560;52.206;21.018;2024-02-21T02:50:28;15.50;;;7.80;;
80247;SDS011;69560;52.206;21.018;2024-02-21T02:52:55;19.90;;;8.40;;
80247;SDS011;69560;52.206;21.018;2024-02-21T02:55:22;18.20;;;8.20;;
80247;SDS011;69560;52.206;21.018;2024-02-21T02:57:49;15.00;;;8.20;;
80247;SDS011;69560;52.206;21.018;2024-02-21T03:00:16;15.20;;;8.30;;
80247;SDS011;69560;52.206;21.018;2024-02-21T03:02:43;18.40;;;9.40;;
80247;SDS011;69560;52.206;21.018;2024-02-21T03:05:15;13.80;;;8.40;;
80247;SDS011;69560;52.206;21.018;2024-02-21T03:07:43;14.60;;;8.70;;
80247;SDS011;69560;52.206;21.018;2024-02-21T03:10:10;15.10;;;8.00;;
80247;SDS011;69560;52.206;21.018;2024-02-21T03:12:37;18.20;;;8.30;;
80247;SDS011;69560;52.206;21.018;2024-02-21T03:15:05;16.70;;;7.70;;
80247;SDS011;69560;52.206;21.018;2024-02-21T03:17:33;15.30;;;8.50;;
80247;SDS011;69560;52.206;21.018;2024-02-21T03:20:02;17.90;;;8.90;;
80247;SDS011;69560;52.206;21.018;2024-02-21T03:22:36;16.10;;;9.30;;
80247;SDS011;69560;52.206;21.018;2024-02-21T03:25:03;21.00;;;9.80;;
80247;SDS011;69560;52.206;21.018;2024-02-21T03:27:30;18.70;;;9.50;;
80247;SDS011;69560;52.206;21.018;2024-02-21T03:29:57;15.50;;;9.40;;
80247;SDS011;69560;52.206;21.018;2024-02-21T03:32:23;12.60;;;8.20;;
80247;SDS011;69560;52.206;21.018;2024-02-21T03:34:50;16.10;;;8.00;;
80247;SDS011;69560;52.206;21.018;2024-02-21T03:37:17;12.80;;;8.20;;
80247;SDS011;69560;52.206;21.018;2024-02-21T03:39:43;19.80;;;8.90;;
80247;SDS011;69560;52.206;21.018;2024-02-21T03:42:10;15.50;;;8.90;;
80247;SDS011;69560;52.206;21.018;2024-02-21T03:44:37;14.00;;;8.50;;
80247;SDS011;69560;52.206;21.018;2024-02-21T03:47:04;15.90;;;8.70;;
80247;SDS011;69560;52.206;21.018;2024-02-21T03:49:31;18.10;;;8.70;;
80247;SDS011;69560;52.206;21.018;2024-02-21T03:51:57;15.60;;;8.80;;
80247;SDS011;69560;52.206;21.018;2024-02-21T03:54:24;16.10;;;8.10;;
80247;SDS011;69560;52.206;21.018;2024-02-21T03:56:50;19.70;;;8.70;;
80247;SDS011;69560;52.206;21.018;2024-02-21T03:59:17;13.10;;;7.30;;
80247;SDS011;69560;52.206;21.018;2024-02-21T04:01:44;17.30;;;7.80;;
80247;SDS011;69560;52.206;21.018;2024-02-21T04:04:10;13.70;;;7.70;;
80247;SDS011;69560;52.206;21.018;2024-02-21T04:06:45;14.80;;;7.90;;
80247;SDS011;69560;52.206;21.018;2024-02-21T04:09:13;19.70;;;8.00;;
80247;SDS011;69560;52.206;21.018;2024-02-21T04:11:40;16.30;;;8.00;;
80247;SDS011;69560;52.206;21.018;2024-02-21T04:14:07;15.10;;;8.00;;
80247;SDS011;69560;52.206;21.018;2024-02-21T04:16:34;15.80;;;7.80;;
80247;SDS011;69560;52.206;21.018;2024-02-21T04:19:01;15.60;;;7.80;;
80247;SDS011;69560;52.206;21.018;2024-02-21T04:21:31;14.10;;;9.20;;
80247;SDS011;69560;52.206;21.018;2024-02-21T04:23:57;15.50;;;8.90;;
80247;SDS011;69560;52.206;21.018;2024-02-21T04:26:24;18.20;;;9.40;;
80247;SDS011;69560;52.206;21.018;2024-02-21T04:28:51;18.50;;;8.60;;
80247;SDS011;69560;52.206;21.018;2024-02-21T04:31:18;17.40;;;8.50;;
80247;SDS011;69560;52.206;21.018;2024-02-21T04:33:44;17.20;;;8.70;;
80247;SDS011;69560;52.206;21.018;2024-02-21T04:36:11;14.10;;;8.80;;
80247;SDS011;69560;52.206;21.018;2024-02-21T04:38:38;17.10;;;9.70;;
80247;SDS011;69560;52.206;21.018;2024-02-21T04:41:05;19.80;;;9.80;;
80247;SDS011;69560;52.206;21.018;2024-02-21T04:43:32;16.20;;;9.30;;
80247;SDS011;69560;52.206;21.018;2024-02-21T04:45:59;19.70;;;9.80;;
80247;SDS011;69560;52.206;21.018;2024-02-21T04:48:26;13.70;;;9.10;;
80247;SDS011;69560;52.206;21.018;2024-02-21T04:50:53;19.00;;;11.00;;
80247;SDS011;69560;52.206;21.018;2024-02-21T04:53:19;17.90;;;10.70;;
80247;SDS011;69560;52.206;21.018;2024-02-21T04:55:46;22.10;;;11.60;;
80247;SDS011;69560;52.206;21.018;2024-02-21T04:58:13;21.50;;;12.70;;
80247;SDS011;69560;52.206;21.018;2024-02-21T05:00:39;21.40;;;12.00;;
80247;SDS011;69560;52.206;21.018;2024-02-21T05:03:06;21.40;;;11.60;;
80247;SDS011;69560;52.206;21.018;2024-02-21T05:05:33;21.90;;;12.30;;
80247;SDS011;69560;52.206;21.018;2024-02-21T05:07:59;21.40;;;12.70;;
80247;SDS011;69560;52.206;21.018;2024-02-21T05:10:26;23.30;;;12.30;;
80247;SDS011;69560;52.206;21.018;2024-02-21T05:12:53;18.40;;;11.60;;
80247;SDS011;69560;52.206;21.018;2024-02-21T05:15:19;20.70;;;11.40;;
80247;SDS011;69560;52.206;21.018;2024-02-21T05:17:46;18.60;;;10.50;;
80247;SDS011;69560;52.206;21.018;2024-02-21T05:20:12;16.60;;;9.90;;
80247;SDS011;69560;52.206;21.018;2024-02-21T05:22:39;17.60;;;9.70;;
80247;SDS011;69560;52.206;21.018;2024-02-21T05:25:05;18.90;;;9.80;;
80247;SDS011;69560;52.206;21.018;2024-02-21T05:27:33;22.80;;;10.30;;
80247;SDS011;69560;52.206;21.018;2024-02-21T05:30:01;22.60;;;11.30;;
80247;SDS011;69560;52.206;21.018;2024-02-21T05:32:27;17.60;;;10.00;;
80247;SDS011;69560;52.206;21.018;2024-02-21T05:34:54;18.40;;;10.80;;
80247;SDS011;69560;52.206;21.018;2024-02-21T05:37:21;20.10;;;10.60;;
80247;SDS011;69560;52.206;21.018;2024-02-21T05:39:47;15.90;;;8.80;;
80247;SDS011;69560;52.206;21.018;2024-02-21T05:42:14;14.50;;;9.80;;
80247;SDS011;69560;52.206;21.018;2024-02-21T05:44:40;21.80;;;10.10;;
80247;SDS011;69560;52.206;21.018;2024-02-21T05:47:07;19.10;;;10.40;;
80247;SDS011;69560;52.206;21.018;2024-02-21T05:49:39;21.20;;;10.30;;
80247;SDS011;69560;52.206;21.018;2024-02-21T05:52:05;20.90;;;10.90;;
80247;SDS011;69560;52.206;21.018;2024-02-21T05:54:32;18.90;;;10.60;;
80247;SDS011;69560;52.206;21.018;2024-02-21T05:56:59;21.80;;;11.50;;
80247;SDS011;69560;52.206;21.018;2024-02-21T05:59:25;20.80;;;11.50;;
80247;SDS011;69560;52.206;21.018;2024-02-21T06:01:55;20.90;;;11.40;;
80247;SDS011;69560;52.206;21.018;2024-02-21T06:04:23;20.90;;;11.60;;
80247;SDS011;69560;52.206;21.018;2024-02-21T06:06:50;19.40;;;10.80;;
80247;SDS011;69560;52.206;21.018;2024-02-21T06:09:17;19.10;;;11.20;;
80247;SDS011;69560;52.206;21.018;2024-02-21T06:11:43;23.10;;;12.40;;
80247;SDS011;69560;52.206;21.018;2024-02-21T06:14:12;21.10;;;12.10;;
80247;SDS011;69560;52.206;21.018;2024-02-21T06:16:39;18.70;;;9.90;;
80247;SDS011;69560;52.206;21.018;2024-02-21T06:19:05;16.60;;;10.60;;
80247;SDS011;69560;52.206;21.018;2024-02-21T06:21:32;21.70;;;12.10;;
80247;SDS011;69560;52.206;21.018;2024-02-21T06:23:58;22.40;;;11.20;;
80247;SDS011;69560;52.206;21.018;2024-02-21T06:26:25;15.40;;;9.50;;
80247;SDS011;69560;52.206;21.018;2024-02-21T06:28:51;21.90;;;11.80;;
80247;SDS011;69560;52.206;21.018;2024-02-21T06:31:18;23.70;;;12.30;;
80247;SDS011;69560;52.206;21.018;2024-02-21T06:33:44;22.30;;;12.70;;
80247;SDS011;69560;52.206;21.018;2024-02-21T06:36:11;21.60;;;12.30;;
80247;SDS011;69560;52.206;21.018;2024-02-21T06:38:37;23.80;;;12.60;;
80247;SDS011;69560;52.206;21.018;2024-02-21T06:41:04;21.90;;;13.30;;
80247;SDS011;69560;52.206;21.018;2024-02-21T06:43:30;25.10;;;13.50;;
80247;SDS011;69560;52.206;21.018;2024-02-21T06:45:57;24.50;;;13.70;;
80247;SDS011;69560;52.206;21.018;2024-02-21T06:48:23;21.20;;;12.20;;
80247;SDS011;69560;52.206;21.018;2024-02-21T06:50:50;27.70;;;14.20;;
80247;SDS011;69560;52.206;21.018;2024-02-21T06:53:17;26.80;;;14.80;;
80247;SDS011;69560;52.206;21.018;2024-02-21T06:55:44;21.10;;;13.20;;
80247;SDS011;69560;52.206;21.018;2024-02-21T06:58:10;26.00;;;14.40;;
80247;SDS011;69560;52.206;21.018;2024-02-21T07:00:38;27.30;;;14.60;;
80247;SDS011;69560;52.206;21.018;2024-02-21T07:03:06;23.40;;;14.40;;
80247;SDS011;69560;52.206;21.018;2024-02-21T07:05:33;23.30;;;13.80;;
80247;SDS011;69560;52.206;21.018;2024-02-21T07:07:59;31.30;;;17.00;;
80247;SDS011;69560;52.206;21.018;2024-02-21T07:10:26;21.00;;;12.30;;
80247;SDS011;69560;52.206;21.018;2024-02-21T07:12:54;30.90;;;15.50;;
80247;SDS011;69560;52.206;21.018;2024-02-21T07:15:21;23.60;;;14.40;;
80247;SDS011;69560;52.206;21.018;2024-02-21T07:17:48;27.40;;;14.50;;
80247;SDS011;69560;52.206;21.018;2024-02-21T07:20:14;21.80;;;13.90;;
80247;SDS011;69560;52.206;21.018;2024-02-21T07:22:41;26.80;;;15.50;;
80247;SDS011;69560;52.206;21.018;2024-02-21T07:25:07;25.50;;;14.00;;
80247;SDS011;69560;52.206;21.018;2024-02-21T07:27:34;26.90;;;15.70;;
80247;SDS011;69560;52.206;21.018;2024-02-21T07:30:01;24.00;;;13.20;;
80247;SDS011;69560;52.206;21.018;2024-02-21T07:32:27;28.00;;;14.70;;
80247;SDS011;69560;52.206;21.018;2024-02-21T07:34:54;26.70;;;14.30;;
80247;SDS011;69560;52.206;21.018;2024-02-21T07:37:21;27.00;;;14.50;;
80247;SDS011;69560;52.206;21.018;2024-02-21T07:39:47;30.80;;;14.80;;
80247;SDS011;69560;52.206;21.018;2024-02-21T07:42:14;27.80;;;14.20;;
80247;SDS011;69560;52.206;21.018;2024-02-21T07:44:41;28.30;;;15.20;;
80247;SDS011;69560;52.206;21.018;2024-02-21T07:47:08;27.80;;;15.50;;
80247;SDS011;69560;52.206;21.018;2024-02-21T07:49:42;30.90;;;15.40;;
80247;SDS011;69560;52.206;21.018;2024-02-21T07:52:12;26.90;;;15.30;;
80247;SDS011;69560;52.206;21.018;2024-02-21T07:54:38;26.60;;;13.70;;
80247;SDS011;69560;52.206;21.018;2024-02-21T07:57:05;28.80;;;15.50;;
80247;SDS011;69560;52.206;21.018;2024-02-21T07:59:31;32.90;;;15.00;;
80247;SDS011;69560;52.206;21.018;2024-02-21T08:01:58;28.90;;;16.00;;
80247;SDS011;69560;52.206;21.018;2024-02-21T08:04:25;35.00;;;17.90;;
80247;SDS011;69560;52.206;21.018;2024-02-21T08:06:54;40.80;;;17.80;;
80247;SDS011;69560;52.206;21.018;2024-02-21T08:09:27;37.10;;;16.70;;
80247;SDS011;69560;52.206;21.018;2024-02-21T08:11:54;27.10;;;14.40;;
80247;SDS011;69560;52.206;21.018;2024-02-21T08:14:21;26.30;;;13.60;;
80247;SDS011;69560;52.206;21.018;2024-02-21T08:16:48;34.00;;;18.30;;
80247;SDS011;69560;52.206;21.018;2024-02-21T08:19:14;32.10;;;17.40;;
80247;SDS011;69560;52.206;21.018;2024-02-21T08:21:41;26.50;;;15.20;;
80247;SDS011;69560;52.206;21.018;2024-02-21T08:24:08;32.20;;;17.00;;
80247;SDS011;69560;52.206;21.018;2024-02-21T08:26:34;31.20;;;17.20;;
80247;SDS011;69560;52.206;21.018;2024-02-21T08:29:02;32.50;;;18.10;;
80247;SDS011;69560;52.206;21.018;2024-02-21T08:31:28;37.10;;;18.60;;
80247;SDS011;69560;52.206;21.018;2024-02-21T08:33:57;34.10;;;18.50;;
80247;SDS011;69560;52.206;21.018;2024-02-21T08:36:29;33.70;;;18.00;;
80247;SDS011;69560;52.206;21.018;2024-02-21T08:38:56;37.80;;;18.10;;
80247;SDS011;69560;52.206;21.018;2024-02-21T08:41:23;32.30;;;19.00;;
80247;SDS011;69560;52.206;21.018;2024-02-21T08:43:51;33.40;;;18.70;;
80247;SDS011;69560;52.206;21.018;2024-02-21T08:46:18;30.80;;;16.10;;
80247;SDS011;69560;52.206;21.018;2024-02-21T08:48:48;30.00;;;18.30;;
80247;SDS011;69560;52.206;21.018;2024-02-21T08:51:15;32.90;;;19.00;;
80247;SDS011;69560;52.206;21.018;2024-02-21T08:53:41;28.30;;;15.10;;
80247;SDS011;69560;52.206;21.018;2024-02-21T08:56:08;33.80;;;17.60;;
80247;SDS011;69560;52.206;21.018;2024-02-21T08:58:35;33.10;;;17.70;;
80247;SDS011;69560;52.206;21.018;2024-02-21T09:01:03;34.70;;;17.70;;
80247;SDS011;69560;52.206;21.018;2024-02-21T09:03:32;33.70;;;17.50;;
80247;SDS011;69560;52.206;21.018;2024-02-21T09:05:59;27.00;;;15.50;;
80247;SDS011;69560;52.206;21.018;2024-02-21T09:08:27;31.90;;;16.70;;
80247;SDS011;69560;52.206;21.018;2024-02-21T09:10:53;31.50;;;16.30;;
80247;SDS011;69560;52.206;21.018;2024-02-21T09:13:20;37.80;;;17.40;;
80247;SDS011;69560;52.206;21.018;2024-02-21T09:15:47;25.60;;;14.70;;
80247;SDS011;69560;52.206;21.018;2024-02-21T09:18:17;23.80;;;13.30;;
80247;SDS011;69560;52.206;21.018;2024-02-21T09:20:44;30.10;;;14.20;;
80247;SDS011;69560;52.206;21.018;2024-02-21T09:23:11;30.10;;;16.10;;
80247;SDS011;69560;52.206;21.018;2024-02-21T09:25:38;28.70;;;16.00;;
80247;SDS011;69560;52.206;21.018;2024-02-21T09:28:06;33.20;;;14.90;;
80247;SDS011;69560;52.206;21.018;2024-02-21T09:30:32;30.00;;;14.90;;
80247;SDS011;69560;52.206;21.018;2024-02-21T09:32:59;22.60;;;13.40;;
80247;SDS011;69560;52.206;21.018;2024-02-21T09:35:27;24.50;;;13.50;;
80247;SDS011;69560;52.206;21.018;2024-02-21T09:37:54;31.10;;;15.00;;
80247;SDS011;69560;52.206;21.018;2024-02-21T09:40:21;31.30;;;14.60;;
80247;SDS011;69560;52.206;21.018;2024-02-21T09:42:48;25.80;;;12.80;;
80247;SDS011;69560;52.206;21.018;2024-02-21T09:45:21;17.70;;;9.90;;
80247;SDS011;69560;52.206;21.018;2024-02-21T09:50:27;21.90;;;12.00;;
80247;SDS011;69560;52.206;21.018;2024-02-21T09:52:57;21.50;;;11.20;;
80247;SDS011;69560;52.206;21.018;2024-02-21T09:55:25;25.00;;;11.30;;
80247;SDS011;69560;52.206;21.018;2024-02-21T09:57:53;19.90;;;9.70;;
80247;SDS011;69560;52.206;21.018;2024-02-21T10:00:20;22.80;;;11.20;;
80247;SDS011;69560;52.206;21.018;2024-02-21T10:02:50;22.70;;;10.50;;
80247;SDS011;69560;52.206;21.018;2024-02-21T10:05:17;19.20;;;9.40;;
80247;SDS011;69560;52.206;21.018;2024-02-21T10:07:43;22.60;;;11.00;;
80247;SDS011;69560;52.206;21.018;2024-02-21T10:10:10;22.70;;;10.40;;
80247;SDS011;69560;52.206;21.018;2024-02-21T10:12:37;23.20;;;9.80;;
80247;SDS011;69560;52.206;21.018;2024-02-21T10:15:19;18.30;;;9.30;;
80247;SDS011;69560;52.206;21.018;2024-02-21T10:17:47;23.60;;;9.70;;
80247;SDS011;69560;52.206;21.018;2024-02-21T10:20:13;25.10;;;10.00;;
80247;SDS011;69560;52.206;21.018;2024-02-21T10:22:41;21.80;;;7.80;;
80247;SDS011;69560;52.206;21.018;2024-02-21T10:25:09;23.40;;;8.40;;
80247;SDS011;69560;52.206;21.018;2024-02-21T10:27:37;16.20;;;8.70;;
80247;SDS011;69560;52.206;21.018;2024-02-21T10:30:05;30.60;;;10.70;;
80247;SDS011;69560;52.206;21.018;2024-02-21T10:32:33;20.90;;;9.40;;
80247;SDS011;69560;52.206;21.018;2024-02-21T10:35:03;20.70;;;8.60;;
80247;SDS011;69560;52.206;21.018;2024-02-21T10:37:35;21.10;;;9.80;;
80247;SDS011;69560;52.206;21.018;2024-02-21T10:40:01;18.30;;;8.80;;
80247;SDS011;69560;52.206;21.018;2024-02-21T10:42:29;19.30;;;8.60;;
80247;SDS011;69560;52.206;21.018;2024-02-21T10:45:01;24.90;;;9.10;;
80247;SDS011;69560;52.206;21.018;2024-02-21T10:47:31;23.10;;;11.30;;
80247;SDS011;69560;52.206;21.018;2024-02-21T10:50:00;19.20;;;9.80;;
80247;SDS011;69560;52.206;21.018;2024-02-21T10:55:21;24.30;;;9.50;;
80247;SDS011;69560;52.206;21.018;2024-02-21T10:57:55;23.80;;;10.60;;
80247;SDS011;69560;52.206;21.018;2024-02-21T11:00:23;19.50;;;11.20;;
80247;SDS011;69560;52.206;21.018;2024-02-21T11:02:56;27.70;;;11.30;;
80247;SDS011;69560;52.206;21.018;2024-02-21T11:05:25;19.30;;;10.90;;
80247;SDS011;69560;52.206;21.018;2024-02-21T11:07:54;28.10;;;16.50;;
80247;SDS011;69560;52.206;21.018;2024-02-21T11:10:24;36.70;;;20.20;;
80247;SDS011;69560;52.206;21.018;2024-02-21T11:13:07;24.70;;;12.80;;
80247;SDS011;69560;52.206;21.018;2024-02-21T11:15:35;25.10;;;12.90;;
80247;SDS011;69560;52.206;21.018;2024-02-21T11:18:01;25.00;;;13.60;;
80247;SDS011;69560;52.206;21.018;2024-02-21T11:20:31;25.30;;;13.60;;
80247;SDS011;69560;52.206;21.018;2024-02-21T11:23:00;22.70;;;13.70;;
80247;SDS011;69560;52.206;21.018;2024-02-21T11:25:29;26.70;;;13.70;;
80247;SDS011;69560;52.206;21.018;2024-02-21T11:28:00;25.30;;;13.30;;
80247;SDS011;69560;52.206;21.018;2024-02-21T11:30:31;25.00;;;13.40;;
80247;SDS011;69560;52.206;21.018;2024-02-21T11:33:01;27.00;;;14.90;;
80247;SDS011;69560;52.206;21.018;2024-02-21T11:35:35;31.50;;;15.10;;
80247;SDS011;69560;52.206;21.018;2024-02-21T11:40:44;26.50;;;15.50;;
80247;SDS011;69560;52.206;21.018;2024-02-21T11:43:11;23.20;;;14.60;;
80247;SDS011;69560;52.206;21.018;2024-02-21T11:45:38;28.10;;;15.40;;
80247;SDS011;69560;52.206;21.018;2024-02-21T11:48:06;25.40;;;14.60;;
80247;SDS011;69560;52.206;21.018;2024-02-21T11:50:36;27.70;;;14.40;;
80247;SDS011;69560;52.206;21.018;2024-02-21T11:53:03;26.30;;;14.00;;
80247;SDS011;69560;52.206;21.018;2024-02-21T11:55:29;25.60;;;14.70;;
80247;SDS011;69560;52.206;21.018;2024-02-21T11:57:56;25.20;;;16.00;;
80247;SDS011;69560;52.206;21.018;2024-02-21T12:00:22;29.20;;;15.00;;
80247;SDS011;69560;52.206;21.018;2024-02-21T12:02:52;30.50;;;16.00;;
80247;SDS011;69560;52.206;21.018;2024-02-21T12:05:19;27.20;;;15.30;;
80247;SDS011;69560;52.206;21.018;2024-02-21T12:07:46;28.10;;;16.20;;
80247;SDS011;69560;52.206;21.018;2024-02-21T12:10:13;25.10;;;13.30;;
80247;SDS011;69560;52.206;21.018;2024-02-21T12:12:40;19.40;;;13.20;;
80247;SDS011;69560;52.206;21.018;2024-02-21T12:15:07;29.60;;;15.90;;
80247;SDS011;69560;52.206;21.018;2024-02-21T12:17:35;29.30;;;16.10;;
80247;SDS011;69560;52.206;21.018;2024-02-21T12:20:03;24.90;;;14.60;;
80247;SDS011;69560;52.206;21.018;2024-02-21T12:22:43;25.30;;;15.50;;
80247;SDS011;69560;52.206;21.018;2024-02-21T12:25:19;23.30;;;13.50;;
80247;SDS011;69560;52.206;21.018;2024-02-21T12:27:52;27.40;;;15.80;;
80247;SDS011;69560;52.206;21.018;2024-02-21T12:30:20;23.90;;;14.60;;
80247;SDS011;69560;52.206;21.018;2024-02-21T12:32:46;25.30;;;15.00;;
80247;SDS011;69560;52.206;21.018;2024-02-21T12:35:14;28.80;;;15.40;;
80247;SDS011;69560;52.206;21.018;2024-02-21T12:37:41;24.90;;;13.10;;
80247;SDS011;69560;52.206;21.018;2024-02-21T12:40:08;24.70;;;14.70;;
80247;SDS011;69560;52.206;21.018;2024-02-21T12:42:36;28.10;;;14.50;;
80247;SDS011;69560;52.206;21.018;2024-02-21T12:45:03;25.60;;;15.50;;
80247;SDS011;69560;52.206;21.018;2024-02-21T12:47:30;28.60;;;16.10;;
80247;SDS011;69560;52.206;21.018;2024-02-21T12:49:56;27.30;;;16.00;;
80247;SDS011;69560;52.206;21.018;2024-02-21T12:52:23;27.80;;;16.80;;
80247;SDS011;69560;52.206;21.018;2024-02-21T12:54:50;24.10;;;14.60;;
80247;SDS011;69560;52.206;21.018;2024-02-21T12:57:18;21.90;;;13.10;;
80247;SDS011;69560;52.206;21.018;2024-02-21T12:59:44;25.20;;;14.30;;
80247;SDS011;69560;52.206;21.018;2024-02-21T13:02:11;24.20;;;14.30;;
80247;SDS011;69560;52.206;21.018;2024-02-21T13:04:37;28.00;;;16.90;;
80247;SDS011;69560;52.206;21.018;2024-02-21T13:07:07;24.00;;;14.60;;
80247;SDS011;69560;52.206;21.018;2024-02-21T13:09:34;30.80;;;15.10;;
80247;SDS011;69560;52.206;21.018;2024-02-21T13:12:00;20.80;;;12.80;;
80247;SDS011;69560;52.206;21.018;2024-02-21T13:14:28;21.20;;;13.70;;
80247;SDS011;69560;52.206;21.018;2024-02-21T13:16:55;24.60;;;14.70;;
80247;SDS011;69560;52.206;21.018;2024-02-21T13:19:21;27.00;;;15.60;;
80247;SDS011;69560;52.206;21.018;2024-02-21T13:21:48;27.90;;;15.10;;
80247;SDS011;69560;52.206;21.018;2024-02-21T13:24:14;21.30;;;12.20;;
80247;SDS011;69560;52.206;21.018;2024-02-21T13:26:41;27.10;;;15.30;;
80247;SDS011;69560;52.206;21.018;2024-02-21T13:29:07;22.20;;;13.20;;
80247;SDS011;69560;52.206;21.018;2024-02-21T13:31:34;65.10;;;40.00;;
80247;SDS011;69560;52.206;21.018;2024-02-21T13:34:00;32.10;;;16.60;;
80247;SDS011;69560;52.206;21.018;2024-02-21T13:36:27;20.50;;;12.40;;
80247;SDS011;69560;52.206;21.018;2024-02-21T13:38:53;21.90;;;12.50;;
80247;SDS011;69560;52.206;21.018;2024-02-21T13:41:20;23.10;;;13.70;;
80247;SDS011;69560;52.206;21.018;2024-02-21T13:43:49;21.10;;;13.00;;
80247;SDS011;69560;52.206;21.018;2024-02-21T13:46:15;21.30;;;13.20;;
80247;SDS011;69560;52.206;21.018;2024-02-21T13:48:42;22.40;;;13.10;;
80247;SDS011;69560;52.206;21.018;2024-02-21T13:51:08;27.70;;;13.20;;
80247;SDS011;69560;52.206;21.018;2024-02-21T13:53:35;21.00;;;13.30;;
80247;SDS011;69560;52.206;21.018;2024-02-21T13:56:02;19.90;;;11.50;;
80247;SDS011;69560;52.206;21.018;2024-02-21T13:58:28;20.90;;;12.40;;
80247;SDS011;69560;52.206;21.018;2024-02-21T14:00:55;20.70;;;12.10;;
80247;SDS011;69560;52.206;21.018;2024-02-21T14:03:22;25.50;;;12.70;;
80247;SDS011;69560;52.206;21.018;2024-02-21T14:05:50;25.20;;;12.60;;
80247;SDS011;69560;52.206;21.018;2024-02-21T14:08:16;20.10;;;11.10;;
80247;SDS011;69560;52.206;21.018;2024-02-21T14:10:43;22.70;;;12.10;;
80247;SDS011;69560;52.206;21.018;2024-02-21T14:13:09;26.90;;;13.50;;
80247;SDS011;69560;52.206;21.018;2024-02-21T14:15:37;21.10;;;11.20;;
80247;SDS011;69560;52.206;21.018;2024-02-21T14:18:07;24.80;;;11.10;;
80247;SDS011;69560;52.206;21.018;2024-02-21T14:20:35;18.10;;;11.10;;
80247;SDS011;69560;52.206;21.018;2024-02-21T14:23:02;19.60;;;11.50;;